Time;durP1;ratioP1;P1;durP2;ratioP2;P2;SDS_P1;SDS_P2;PMS_P1;PMS_P2;Temp;Humidity;BMP_temperature;BMP_pressure;BME280_temperature;BME280_humidity;BME280_pressure;Samples;Min_cycle;Max_cycle;Signal;HPM_P1;HPM_P2
2023/12/28 00:14:20;;;;;;;6.10;3.40;;;;;;;8.03;62.67;100585.94;5888627;24;20235;-73
2023/12/28 00:32:36;;;;;;;;;;;;;;;;;;;;;
2023/12/28 00:40:26;;;;;;;7.00;4.00;;;;;;;7.94;63.73;100580.47;6060926;23;20204;-75
2023/12/28 01:52:05;;;;;;;6.77;3.43;;;;;;;8.98;60.41;100629.72;5918975;24;20200;-73
2023/12/28 03:02:07;;;;;;;8.70;2.60;;;;;;;10.29;65.03;100633.81;5803231;24;20694;-72
2023/12/28 03:05:41;;;;;;;5.97;2.63;;;;;;;10.27;66.11;100646.34;5969564;24;20239;-73
2023/12/28 03:12:37;;;;;;;5.70;2.53;;;;;;;10.33;68.88;100666.97;6060278;23;20215;-74
2023/12/28 03:15:17;;;;;;;4.17;2.20;;;;;;;10.34;70.16;100658.88;6112454;23;20597;-73
2023/12/28 03:29:00;;;;;;;4.97;2.13;;;;;;;10.37;71.70;100663.09;5910229;24;20193;-73
2023/12/28 03:31:57;;;;;;;;;;;;;;;;;;;;;
2023/12/28 03:49:22;;;;;;;6.90;2.10;;;;;;;10.51;70.61;100673.22;6116503;23;20212;-73
2023/12/28 04:20:53;;;;;;;3.17;1.67;;;;;;;10.74;70.75;100682.50;5875517;23;20280;-74
2023/12/28 04:31:43;;;;;;;6.43;2.50;;;;;;;10.64;71.98;100692.34;5989996;23;20251;-73
2023/12/28 09:07:48;;;;;;;6.33;2.57;;;;;;;11.40;76.02;100804.53;5863196;24;20233;-71
2023/12/28 09:10:17;;;;;;;5.23;2.03;;;;;;;11.44;76.34;100805.91;5911164;24;20259;-67
2023/12/28 09:12:46;;;;;;;4.83;2.20;;;;;;;11.45;76.58;100793.47;6107135;23;20182;-68
2023/12/28 09:15:15;;;;;;;5.93;2.60;;;;;;;11.45;77.56;100799.59;6114530;23;20189;-73
2023/12/28 09:17:50;;;;;;;7.80;1.93;;;;;;;11.40;79.04;100809.84;6115498;23;20213;-66
2023/12/28 09:20:21;;;;;;;4.50;2.40;;;;;;;11.43;79.38;100806.91;6114826;23;20197;-71
2023/12/28 09:22:56;;;;;;;4.03;2.03;;;;;;;11.48;79.81;100804.63;6112674;23;20618;-67
2023/12/28 09:25:25;;;;;;;3.87;2.30;;;;;;;11.51;79.90;100804.38;6111866;23;20209;-66
2023/12/28 09:27:54;;;;;;;4.03;2.10;;;;;;;11.54;80.10;100821.81;6112744;23;20693;-68
2023/12/28 09:30:24;;;;;;;5.77;2.63;;;;;;;11.61;79.87;100826.38;6112792;23;21145;-69
2023/12/28 09:32:59;;;;;;;4.70;2.43;;;;;;;11.74;79.25;100830.53;6112776;23;20194;-66
2023/12/28 09:35:28;;;;;;;6.67;2.30;;;;;;;11.77;79.07;100827.63;6115733;23;20165;-68
2023/12/28 09:38:01;;;;;;;4.80;2.60;;;;;;;11.76;78.75;100840.06;6114849;23;20206;-70
2023/12/28 09:40:30;;;;;;;6.80;2.10;;;;;;;11.70;78.48;100846.75;6114426;23;20205;-67
2023/12/28 09:43:09;;;;;;;7.27;2.53;;;;;;;11.63;78.96;100836.88;6113470;23;20193;-67
2023/12/28 09:45:39;;;;;;;5.80;2.50;;;;;;;11.60;79.08;100845.97;6114672;23;20626;-67
2023/12/28 09:48:08;;;;;;;4.77;2.53;;;;;;;11.56;79.46;100849.91;6113649;23;20178;-68
2023/12/28 09:50:42;;;;;;;4.20;2.20;;;;;;;11.52;79.82;100840.53;6114699;23;20174;-76
2023/12/28 09:53:13;;;;;;;6.80;2.20;;;;;;;11.48;80.14;100841.81;6114574;23;20230;-68
2023/12/28 09:55:42;;;;;;;4.47;2.40;;;;;;;11.40;80.59;100844.38;6115708;23;20205;-71
2023/12/28 09:58:14;;;;;;;5.37;2.60;;;;;;;11.42;80.09;100837.09;6116179;23;20213;-66
2023/12/28 10:00:45;;;;;;;3.90;2.30;;;;;;;11.47;80.02;100834.84;6115167;23;20174;-69
2023/12/28 10:03:14;;;;;;;5.47;2.83;;;;;;;11.51;79.24;100822.94;6114877;23;20327;-71
2023/12/28 10:05:46;;;;;;;5.87;3.30;;;;;;;11.54;78.77;100814.66;6112833;23;21055;-71
2023/12/28 10:08:20;;;;;;;5.50;2.93;;;;;;;11.62;78.50;100817.44;6113356;23;20197;-68
2023/12/28 10:10:58;;;;;;;8.33;3.10;;;;;;;11.69;78.09;100821.19;6113544;23;20638;-67
2023/12/28 10:13:34;;;;;;;5.60;2.80;;;;;;;11.74;77.81;100820.75;6113131;23;20183;-69
2023/12/28 10:16:03;;;;;;;4.80;2.43;;;;;;;11.84;76.96;100834.84;6113653;23;20177;-71
2023/12/28 10:18:32;;;;;;;7.00;2.30;;;;;;;11.82;75.22;100834.16;6113984;23;20645;-70
2023/12/28 10:21:02;;;;;;;3.77;1.90;;;;;;;11.85;74.24;100833.88;6112406;23;20638;-71
2023/12/28 10:23:32;;;;;;;5.37;2.23;;;;;;;11.86;74.32;100826.75;6114540;23;20205;-67
2023/12/28 10:26:01;;;;;;;5.60;2.80;;;;;;;11.84;74.39;100837.50;6113482;23;20188;-67
2023/12/28 10:28:37;;;;;;;6.83;3.50;;;;;;;11.84;74.72;100847.31;6181696;23;20238;-67
2023/12/28 10:31:06;;;;;;;7.80;3.70;;;;;;;11.87;75.13;100839.03;6235272;23;20206;-66
2023/12/28 10:33:41;;;;;;;7.10;3.43;;;;;;;11.89;75.66;100840.56;6235429;23;20183;-67
2023/12/28 10:36:10;;;;;;;5.43;2.80;;;;;;;11.98;75.36;100838.81;6234197;23;20592;-73
2023/12/28 10:38:44;;;;;;;5.17;2.80;;;;;;;12.06;75.13;100833.59;6237562;23;20730;-69
2023/12/28 10:41:17;;;;;;;5.33;2.63;;;;;;;12.14;75.24;100839.00;6236568;23;20163;-73
2023/12/28 10:44:07;;;;;;;5.87;2.83;;;;;;;12.17;75.70;100843.19;6234854;23;20604;-70
2023/12/28 10:49:30;;;;;;;7.00;2.70;;;;;;;12.22;75.44;100848.94;6229821;23;20189;-68
2023/12/28 10:52:06;;;;;;;5.53;2.87;;;;;;;12.22;74.67;100846.28;6234675;23;20206;-68
2023/12/28 10:55:05;;;;;;;8.03;3.00;;;;;;;12.15;75.93;100845.16;6235287;23;20682;-70
2023/12/28 10:57:38;;;;;;;4.67;2.30;;;;;;;12.02;76.87;100841.06;6233616;23;20302;-69
2023/12/28 11:00:46;;;;;;;6.30;2.63;;;;;;;12.03;77.01;100839.25;6233871;23;20294;-67
2023/12/28 11:03:36;;;;;;;5.43;2.77;;;;;;;11.94;77.63;100835.66;6195538;23;20464;-69
2023/12/28 11:06:14;;;;;;;5.57;2.70;;;;;;;11.99;77.52;100830.72;6173264;23;20187;-69
2023/12/28 11:09:27;;;;;;;4.77;2.10;;;;;;;11.90;77.99;100831.59;6236622;23;20591;-68
2023/12/28 11:12:02;;;;;;;6.63;2.40;;;;;;;11.87;78.83;100818.63;6235257;23;20190;-71
2023/12/28 11:14:50;;;;;;;3.50;2.07;;;;;;;11.89;78.52;100824.59;6233774;23;20495;-69
2023/12/28 11:17:26;;;;;;;5.13;2.57;;;;;;;11.94;77.90;100817.03;6235505;23;20659;-67
2023/12/28 11:27:18;;;;;;;4.37;2.43;;;;;;;11.91;77.69;100801.38;6137727;23;20685;-70
2023/12/28 11:30:14;;;;;;;5.07;2.50;;;;;;;11.89;78.04;100818.47;6110554;23;20253;-68
2023/12/28 11:33:03;;;;;;;5.63;2.40;;;;;;;11.87;78.11;100804.50;6110680;23;20551;-73
2023/12/28 11:35:46;;;;;;;5.73;2.70;;;;;;;11.82;78.42;100806.75;6110812;23;20248;-67
2023/12/28 11:38:22;;;;;;;6.27;3.23;;;;;;;11.76;78.57;100807.34;6112545;23;20249;-66
2023/12/28 11:41:50;;;;;;;7.87;2.63;;;;;;;11.85;79.62;100806.47;6115584;23;20186;-71
2023/12/28 11:44:30;;;;;;;22.57;3.40;;;;;;;11.99;80.15;100796.16;6094233;23;20288;-68
2023/12/28 11:47:15;;;;;;;6.07;2.90;;;;;;;12.21;79.70;100784.28;5135608;27;20588;-70
2023/12/28 11:50:18;;;;;;;8.13;3.07;;;;;;;12.33;78.32;100785.72;5118896;27;20206;-68
2023/12/28 11:52:50;;;;;;;7.87;2.77;;;;;;;12.33;77.86;100780.38;5124020;27;20201;-70
2023/12/28 11:59:03;;;;;;;6.13;3.07;;;;;;;12.57;76.50;100770.97;5114008;27;20305;-70
2023/12/28 12:01:54;;;;;;;6.70;3.50;;;;;;;12.89;75.03;100765.91;5111811;27;20244;-67
2023/12/28 12:04:27;;;;;;;9.53;2.77;;;;;;;13.20;73.85;100766.28;5114406;27;20213;-66
2023/12/28 12:06:56;;;;;;;7.80;2.70;;;;;;;13.36;72.14;100770.88;5113497;27;20247;-64
2023/12/28 12:09:34;;;;;;;6.13;2.50;;;;;;;13.53;71.57;100769.97;5116245;27;20487;-69
2023/12/28 12:12:02;;;;;;;4.43;2.40;;;;;;;13.61;70.91;100770.00;5116293;27;20220;-66
2023/12/28 12:18:19;;;;;;;6.67;2.50;;;;;;;13.85;69.28;100754.06;5061305;28;20239;-69
2023/12/28 12:21:04;;;;;;;6.90;2.90;;;;;;;13.94;69.41;100755.78;5085467;27;20707;-70
2023/12/28 12:27:05;;;;;;;8.13;2.40;;;;;;;14.01;68.37;100763.09;5096293;28;20266;-69
2023/12/28 12:29:37;;;;;;;3.30;1.90;;;;;;;14.00;67.80;100767.59;5110510;28;20660;-69
2023/12/28 12:32:06;;;;;;;3.43;1.90;;;;;;;13.96;67.84;100762.78;5109635;28;20587;-68
2023/12/28 12:34:49;;;;;;;4.53;2.37;;;;;;;13.99;68.14;100752.59;5109991;28;20221;-72
2023/12/28 12:37:22;;;;;;;6.07;1.87;;;;;;;13.94;69.08;100747.78;5108138;28;20212;-66
2023/12/28 12:39:50;;;;;;;5.77;2.53;;;;;;;13.82;69.81;100738.41;5107970;28;20364;-68
2023/12/28 12:42:20;;;;;;;5.67;2.40;;;;;;;13.58;70.50;100735.66;5109531;27;20817;-67
2023/12/28 12:44:48;;;;;;;5.57;2.60;;;;;;;13.22;72.56;100737.66;5110714;28;20201;-67
2023/12/28 12:47:16;;;;;;;4.70;2.70;;;;;;;12.95;74.47;100737.81;5109216;28;20238;-66
2023/12/28 12:49:44;;;;;;;8.67;2.37;;;;;;;12.64;76.84;100734.78;5109561;28;20261;-66
2023/12/28 12:52:13;;;;;;;3.93;2.13;;;;;;;12.49;78.96;100739.78;5109689;28;20233;-67
2023/12/28 12:54:42;;;;;;;7.10;3.20;;;;;;;12.32;80.88;100730.84;5108461;28;20245;-66
2023/12/28 12:57:11;;;;;;;8.83;3.43;;;;;;;12.16;82.57;100736.03;5103440;28;20843;-67
2023/12/28 12:59:39;;;;;;;6.80;2.80;;;;;;;12.02;84.13;100733.91;5097690;28;20199;-66
2023/12/28 13:02:09;;;;;;;7.43;2.80;;;;;;;11.91;85.10;100726.13;5097597;28;20230;-67
2023/12/28 13:04:39;;;;;;;8.80;2.63;;;;;;;11.83;86.04;100728.72;5097180;28;20206;-67
2023/12/28 13:07:07;;;;;;;4.50;2.50;;;;;;;11.77;87.29;100726.66;5098043;28;20227;-68
2023/12/28 13:09:35;;;;;;;6.07;2.80;;;;;;;11.66;88.91;100719.69;5094417;28;20206;-65
2023/12/28 13:12:05;;;;;;;5.00;2.70;;;;;;;11.53;90.24;100724.50;5094914;28;20688;-67
2023/12/28 13:14:33;;;;;;;5.57;3.13;;;;;;;11.50;90.62;100723.00;5092164;28;20213;-64
2023/12/28 13:17:01;;;;;;;5.03;2.80;;;;;;;11.47;91.43;100717.16;5098724;28;21065;-67
2023/12/28 13:19:28;;;;;;;5.80;2.47;;;;;;;11.45;91.61;100714.63;5097004;28;20219;-64
2023/12/28 13:21:57;;;;;;;4.77;2.57;;;;;;;11.46;91.85;100715.47;5094842;28;20763;-64
2023/12/28 13:24:25;;;;;;;6.73;3.47;;;;;;;11.41;92.82;100707.97;5098010;28;20225;-65
2023/12/28 13:26:53;;;;;;;6.50;3.80;;;;;;;11.38;93.14;100697.63;5095498;28;20957;-66
2023/12/28 13:29:22;;;;;;;5.90;3.10;;;;;;;11.38;94.04;100699.44;5098049;28;20198;-65
2023/12/28 13:31:51;;;;;;;13.60;7.63;;;;;;;11.41;93.71;100692.03;5097090;28;20250;-65
2023/12/28 13:34:19;;;;;;;11.47;8.00;;;;;;;11.40;93.55;100700.97;5098581;28;20847;-63
2023/12/28 13:36:47;;;;;;;9.27;4.03;;;;;;;11.38;93.25;100700.28;5096665;28;20222;-66
2023/12/28 13:39:17;;;;;;;7.10;3.97;;;;;;;11.33;93.89;100705.22;5094537;28;20202;-65
2023/12/28 13:41:45;;;;;;;5.57;3.30;;;;;;;11.28;94.57;100699.50;5095436;28;20213;-65
2023/12/28 13:44:13;;;;;;;5.60;3.00;;;;;;;11.31;94.27;100707.16;5094304;28;20264;-65
2023/12/28 13:46:42;;;;;;;6.00;2.73;;;;;;;11.33;94.02;100707.88;5093347;28;20318;-67
2023/12/28 13:49:10;;;;;;;3.90;2.10;;;;;;;11.40;93.72;100702.78;5095742;28;20255;-66
2023/12/28 13:51:38;;;;;;;4.47;2.10;;;;;;;11.44;92.93;100696.19;5093782;28;21114;-68
2023/12/28 13:54:06;;;;;;;3.87;1.93;;;;;;;11.54;91.92;100696.97;5096193;28;20203;-65
2023/12/28 13:56:34;;;;;;;2.37;1.57;;;;;;;11.57;90.73;100699.34;5097138;28;20210;-64
2023/12/28 13:59:02;;;;;;;2.37;1.40;;;;;;;11.53;89.97;100697.97;5097649;28;20278;-68
2023/12/28 14:01:30;;;;;;;4.90;1.77;;;;;;;11.57;89.18;100696.69;5094689;28;20630;-67
2023/12/28 14:03:59;;;;;;;2.93;1.53;;;;;;;11.58;88.49;100699.19;5097411;28;20253;-65
2023/12/28 14:06:27;;;;;;;4.07;1.70;;;;;;;11.57;88.11;100694.88;5096104;28;20226;-65
2023/12/28 14:08:57;;;;;;;3.43;1.83;;;;;;;11.58;88.08;100693.88;5093936;28;20242;-66
2023/12/28 14:11:25;;;;;;;4.40;1.80;;;;;;;11.63;87.40;100690.78;5093141;28;20207;-66
2023/12/28 14:13:53;;;;;;;3.33;1.60;;;;;;;11.72;86.25;100675.75;5093591;28;20199;-66
2023/12/28 14:16:21;;;;;;;3.40;1.77;;;;;;;11.79;85.18;100684.81;5096119;28;20202;-66
2023/12/28 14:18:49;;;;;;;3.23;1.73;;;;;;;11.80;84.24;100675.88;5092706;28;20209;-67
2023/12/28 14:21:19;;;;;;;3.70;1.70;;;;;;;11.75;83.39;100680.81;5094655;28;20220;-64
2023/12/28 14:23:48;;;;;;;4.17;1.60;;;;;;;11.69;83.00;100688.38;5095499;28;20233;-69
2023/12/28 14:26:16;;;;;;;4.07;1.67;;;;;;;11.70;82.62;100687.38;5096708;28;20202;-66
2023/12/28 14:28:45;;;;;;;3.57;2.00;;;;;;;11.74;82.05;100687.91;5094228;28;20235;-66
2023/12/28 14:31:14;;;;;;;4.73;1.97;;;;;;;11.77;81.53;100689.47;5092906;28;20897;-67
2023/12/28 14:33:43;;;;;;;3.87;1.90;;;;;;;11.80;81.38;100686.50;5097299;28;20260;-65
2023/12/28 14:36:20;;;;;;;4.13;1.63;;;;;;;11.83;80.47;100687.03;5095469;28;20274;-68
2023/12/28 14:38:48;;;;;;;3.10;1.60;;;;;;;11.85;79.96;100674.44;5095358;28;20292;-67
2023/12/28 14:41:16;;;;;;;4.97;1.87;;;;;;;11.81;79.17;100677.53;5092696;28;20206;-66
2023/12/28 14:43:44;;;;;;;3.80;1.80;;;;;;;11.76;79.15;100663.88;5094687;28;20214;-67
2023/12/28 14:46:12;;;;;;;5.20;2.30;;;;;;;11.72;78.89;100681.06;5094438;28;20612;-68
2023/12/28 14:48:40;;;;;;;3.90;1.90;;;;;;;11.67;78.78;100677.06;5095054;28;20253;-66
2023/12/28 14:51:09;;;;;;;3.60;2.07;;;;;;;11.61;78.62;100672.31;5093784;28;20569;-68
2023/12/28 14:53:38;;;;;;;5.07;1.83;;;;;;;11.61;78.50;100661.69;5094805;28;20210;-66
2023/12/28 14:56:06;;;;;;;3.80;2.30;;;;;;;11.60;78.17;100662.72;5096209;28;21027;-67
2023/12/28 14:58:37;;;;;;;5.87;2.17;;;;;;;11.61;78.06;100659.03;5096556;28;20210;-67
2023/12/28 15:01:06;;;;;;;3.80;1.87;;;;;;;11.62;77.94;100652.75;5093389;28;20213;-67
2023/12/28 15:03:34;;;;;;;3.80;2.23;;;;;;;11.61;77.93;100648.41;5094426;28;20264;-67
2023/12/28 15:06:03;;;;;;;5.00;2.40;;;;;;;11.54;77.85;100649.16;5096776;28;20206;-66
2023/12/28 15:08:31;;;;;;;3.90;1.90;;;;;;;11.49;78.12;100656.75;5093453;28;20229;-67
2023/12/28 15:11:03;;;;;;;8.00;2.93;;;;;;;11.46;77.88;100652.56;5095926;28;20216;-67
2023/12/28 15:13:31;;;;;;;4.53;2.00;;;;;;;11.44;77.89;100649.22;5094370;28;20198;-67
2023/12/28 15:16:00;;;;;;;5.07;2.30;;;;;;;11.41;77.98;100654.84;5093331;28;20325;-68
2023/12/28 15:18:28;;;;;;;4.27;2.10;;;;;;;11.40;77.96;100647.88;5093873;28;20202;-66
2023/12/28 15:20:57;;;;;;;4.07;2.23;;;;;;;11.38;77.83;100655.16;5092731;28;20208;-67
2023/12/28 15:23:26;;;;;;;4.70;1.97;;;;;;;11.37;77.92;100657.94;5095728;28;20226;-67
2023/12/28 15:25:55;;;;;;;3.80;2.10;;;;;;;11.37;77.75;100663.25;5093447;28;20679;-66
2023/12/28 15:28:24;;;;;;;3.40;1.63;;;;;;;11.33;77.61;100662.72;5094092;28;21149;-66
2023/12/28 15:30:52;;;;;;;8.47;2.20;;;;;;;11.29;77.35;100661.34;5091938;28;20202;-69
2023/12/28 15:33:22;;;;;;;5.00;2.40;;;;;;;11.20;77.68;100672.84;5093224;28;20271;-68
2023/12/28 15:35:49;;;;;;;4.97;2.07;;;;;;;11.17;77.87;100667.84;5091860;28;20651;-67
2023/12/28 15:38:19;;;;;;;4.57;2.10;;;;;;;11.19;77.85;100672.00;5090901;28;20214;-68
2023/12/28 15:40:47;;;;;;;4.67;2.13;;;;;;;11.15;77.73;100659.19;5093358;28;20705;-66
2023/12/28 15:43:15;;;;;;;3.63;2.10;;;;;;;11.13;77.92;100661.16;5094181;28;20331;-67
2023/12/28 15:45:44;;;;;;;6.13;2.23;;;;;;;11.13;77.62;100662.00;5093333;28;20267;-67
2023/12/28 15:48:12;;;;;;;10.23;4.17;;;;;;;11.11;77.69;100665.75;5094445;28;20236;-67
2023/12/28 15:50:40;;;;;;;6.40;3.30;;;;;;;11.09;77.69;100659.75;5094968;28;20231;-69
2023/12/28 15:53:08;;;;;;;6.83;2.90;;;;;;;11.06;77.70;100666.22;5093507;28;20233;-68
2023/12/28 15:55:37;;;;;;;5.60;2.00;;;;;;;11.05;77.45;100663.72;5096202;28;20211;-67
2023/12/28 15:58:05;;;;;;;4.40;2.37;;;;;;;11.06;77.59;100668.03;5094897;28;20713;-67
2023/12/28 16:00:33;;;;;;;3.60;2.27;;;;;;;11.05;77.29;100674.31;5093280;28;20220;-67
2023/12/28 16:03:02;;;;;;;4.30;2.17;;;;;;;11.05;77.10;100677.81;5093415;28;20669;-67
2023/12/28 16:05:30;;;;;;;4.67;2.10;;;;;;;11.05;76.91;100669.00;5090120;28;20967;-67
2023/12/28 16:07:58;;;;;;;5.70;2.10;;;;;;;10.98;76.97;100670.59;5093715;28;20951;-68
2023/12/28 16:10:27;;;;;;;3.33;1.80;;;;;;;10.93;77.25;100671.84;5092317;28;20205;-68
2023/12/28 16:12:56;;;;;;;3.37;2.03;;;;;;;10.96;77.29;100664.59;5094180;28;20873;-67
2023/12/28 16:15:25;;;;;;;5.67;1.90;;;;;;;10.96;77.11;100675.19;5094785;28;20612;-66
2023/12/28 16:17:56;;;;;;;4.40;1.77;;;;;;;10.91;77.10;100673.78;5092020;28;20530;-67
2023/12/28 16:20:27;;;;;;;5.27;2.00;;;;;;;10.91;77.06;100675.63;5092937;28;20869;-66
2023/12/28 16:22:56;;;;;;;5.57;1.90;;;;;;;10.93;76.99;100671.00;5090165;28;20217;-67
2023/12/28 16:25:24;;;;;;;6.03;2.23;;;;;;;10.96;76.81;100669.88;5095260;28;20287;-67
2023/12/28 16:27:52;;;;;;;3.80;1.97;;;;;;;10.93;76.62;100671.00;5092181;28;20228;-65
2023/12/28 16:30:20;;;;;;;4.43;2.40;;;;;;;10.89;76.74;100667.81;5094302;28;20266;-66
2023/12/28 16:32:48;;;;;;;5.33;2.30;;;;;;;10.87;76.82;100672.44;5092830;28;20608;-68
2023/12/28 16:35:20;;;;;;;4.03;2.23;;;;;;;10.86;76.95;100657.50;5095864;28;20223;-66
2023/12/28 16:37:49;;;;;;;3.50;2.03;;;;;;;10.88;76.89;100662.66;5098446;28;20286;-69
2023/12/28 16:40:20;;;;;;;4.03;2.17;;;;;;;10.90;76.79;100658.06;5099079;28;20239;-66
2023/12/28 16:42:49;;;;;;;3.83;2.33;;;;;;;10.87;76.77;100655.69;5098069;28;20296;-66
2023/12/28 16:45:17;;;;;;;4.07;1.97;;;;;;;10.84;76.82;100654.16;5097554;28;20217;-66
2023/12/28 16:47:48;;;;;;;3.93;2.17;;;;;;;10.82;76.83;100661.41;5100165;27;20322;-66
2023/12/28 16:50:23;;;;;;;3.87;2.13;;;;;;;10.82;76.91;100673.81;5096687;28;20211;-67
2023/12/28 16:52:56;;;;;;;3.37;2.00;;;;;;;10.86;76.81;100668.09;5098000;28;20208;-66
2023/12/28 16:55:25;;;;;;;4.30;2.40;;;;;;;10.88;76.39;100663.50;5096731;28;20213;-66
2023/12/28 16:57:54;;;;;;;6.37;2.40;;;;;;;10.88;76.25;100663.50;5100701;28;20266;-66
2023/12/28 17:00:23;;;;;;;5.87;2.67;;;;;;;10.89;76.40;100672.28;5097318;28;20213;-66
2023/12/28 17:02:51;;;;;;;5.43;2.60;;;;;;;10.92;76.26;100672.81;5101044;28;20741;-67
2023/12/28 17:05:26;;;;;;;6.60;2.60;;;;;;;10.91;76.15;100678.25;5098980;28;20220;-66
2023/12/28 17:07:56;;;;;;;4.90;2.57;;;;;;;10.96;76.02;100680.50;5097131;28;20226;-66
2023/12/28 17:10:26;;;;;;;5.13;2.60;;;;;;;10.94;76.01;100677.97;5097970;28;20541;-66
2023/12/28 17:12:54;;;;;;;4.97;2.90;;;;;;;10.97;76.13;100676.88;5096482;28;20288;-66
2023/12/28 17:15:23;;;;;;;6.47;2.77;;;;;;;10.96;76.13;100677.84;5097779;28;20202;-66
2023/12/28 17:17:55;;;;;;;6.40;3.07;;;;;;;10.94;76.18;100667.38;5098889;28;20252;-68
2023/12/28 17:20:25;;;;;;;7.17;3.13;;;;;;;10.94;76.28;100662.91;5100733;28;20208;-68
2023/12/28 17:23:00;;;;;;;6.93;3.10;;;;;;;11.01;76.29;100667.63;5100428;28;20774;-67
2023/12/28 17:25:39;;;;;;;4.50;2.70;;;;;;;11.05;76.24;100669.00;5098717;28;20203;-67
2023/12/28 17:28:18;;;;;;;6.33;2.97;;;;;;;11.08;76.24;100669.53;5100137;28;20213;-67
2023/12/28 17:30:50;;;;;;;10.10;3.03;;;;;;;11.08;76.28;100674.84;5099793;28;20292;-66
2023/12/28 17:33:23;;;;;;;5.10;2.50;;;;;;;11.09;76.60;100670.38;5097514;28;20207;-65
2023/12/28 17:35:52;;;;;;;7.03;2.97;;;;;;;11.10;76.60;100677.34;5096748;28;20298;-66
2023/12/28 17:38:24;;;;;;;7.63;3.20;;;;;;;11.11;76.73;100674.56;5098431;28;20678;-67
2023/12/28 17:40:53;;;;;;;5.07;3.03;;;;;;;11.13;76.96;100680.56;5097128;28;20286;-67
2023/12/28 17:43:29;;;;;;;4.73;2.83;;;;;;;11.19;77.17;100681.78;5095073;28;20571;-68
2023/12/28 17:46:05;;;;;;;5.20;3.07;;;;;;;11.21;77.07;100680.66;5097862;28;20288;-67
2023/12/28 17:48:42;;;;;;;6.97;2.80;;;;;;;11.22;77.18;100671.72;5096043;28;20215;-67
2023/12/28 17:51:13;;;;;;;6.40;3.60;;;;;;;11.20;77.64;100667.53;5096424;28;20276;-68
2023/12/28 17:53:43;;;;;;;7.67;3.37;;;;;;;11.22;77.38;100663.75;5097014;28;20208;-68
2023/12/28 17:56:13;;;;;;;5.87;3.77;;;;;;;11.27;77.50;100669.44;5094359;28;20210;-68
2023/12/28 17:58:41;;;;;;;6.33;3.30;;;;;;;11.32;77.53;100677.00;5096037;28;20213;-66
2023/12/28 18:01:10;;;;;;;6.07;3.47;;;;;;;11.24;77.60;100663.63;5095966;28;20688;-67
2023/12/28 18:03:39;;;;;;;5.70;2.90;;;;;;;11.25;77.88;100675.91;5095846;28;20209;-72
2023/12/28 18:06:07;;;;;;;8.03;3.37;;;;;;;11.27;77.74;100669.44;5095678;28;20225;-67
2023/12/28 18:08:35;;;;;;;6.10;3.43;;;;;;;11.25;77.81;100675.91;5098822;28;20317;-69
2023/12/28 18:11:05;;;;;;;6.47;3.27;;;;;;;11.16;78.11;100671.50;5097366;28;20572;-68
2023/12/28 18:13:33;;;;;;;6.13;3.67;;;;;;;11.19;78.44;100682.63;5096821;28;20210;-67
2023/12/28 18:16:01;;;;;;;7.97;3.63;;;;;;;11.23;78.42;100675.22;5098326;28;20206;-67
2023/12/28 18:18:29;;;;;;;8.77;3.83;;;;;;;11.22;78.29;100677.03;5097211;28;20210;-68
2023/12/28 18:20:57;;;;;;;6.97;3.50;;;;;;;11.24;78.08;100674.25;5096050;28;20308;-67
2023/12/28 18:23:25;;;;;;;6.50;3.20;;;;;;;11.21;78.34;100671.88;5096766;28;20227;-68
2023/12/28 18:25:53;;;;;;;6.23;2.77;;;;;;;11.19;78.66;100665.88;5096370;28;20324;-67
2023/12/28 18:28:23;;;;;;;4.93;3.07;;;;;;;11.16;78.82;100667.00;5095260;28;20203;-67
2023/12/28 18:30:51;;;;;;;6.30;3.10;;;;;;;11.07;79.40;100667.91;5092476;28;20918;-66
2023/12/28 18:33:22;;;;;;;7.70;2.83;;;;;;;11.08;79.77;100669.53;5096325;28;20212;-66
2023/12/28 18:35:51;;;;;;;6.43;3.10;;;;;;;11.15;79.66;100659.19;5095447;28;20217;-66
2023/12/28 18:38:19;;;;;;;5.43;3.13;;;;;;;11.14;79.55;100655.69;5093647;28;20749;-67
2023/12/28 18:40:48;;;;;;;4.73;2.77;;;;;;;11.04;80.23;100656.72;5095519;28;20209;-66
2023/12/28 18:43:16;;;;;;;5.37;2.67;;;;;;;11.04;80.44;100657.56;5095028;28;20216;-67
2023/12/28 18:45:46;;;;;;;6.87;3.27;;;;;;;10.99;80.67;100675.75;5095080;28;20209;-67
2023/12/28 18:48:16;;;;;;;5.43;2.70;;;;;;;11.05;80.58;100675.16;5098745;28;20681;-67
2023/12/28 18:50:45;;;;;;;5.10;2.90;;;;;;;11.17;80.21;100678.47;5094701;28;20326;-67
2023/12/28 18:53:13;;;;;;;5.00;2.60;;;;;;;11.22;79.85;100677.03;5095165;28;20199;-66
2023/12/28 18:55:42;;;;;;;5.13;2.70;;;;;;;11.27;79.58;100682.72;5093871;28;20280;-67
2023/12/28 18:58:12;;;;;;;6.53;2.57;;;;;;;11.28;79.80;100680.91;5096430;28;20304;-67
2023/12/28 19:00:40;;;;;;;6.27;2.80;;;;;;;11.29;79.87;100675.47;5096200;28;20669;-67
2023/12/28 19:03:10;;;;;;;6.33;2.83;;;;;;;11.33;79.80;100689.28;5092581;28;20205;-66
2023/12/28 19:05:38;;;;;;;6.30;3.27;;;;;;;11.32;79.65;100682.28;5092797;28;20310;-68
2023/12/28 19:08:07;;;;;;;4.40;2.63;;;;;;;11.32;79.84;100675.16;5094321;28;20294;-67
2023/12/28 19:10:36;;;;;;;6.57;3.10;;;;;;;11.21;80.14;100679.84;5093381;28;20291;-66
2023/12/28 19:13:04;;;;;;;7.00;3.03;;;;;;;11.10;81.02;100686.16;5095295;28;20218;-66
2023/12/28 19:15:32;;;;;;;4.97;3.23;;;;;;;11.02;81.54;100674.59;5099744;28;20228;-66
2023/12/28 19:18:00;;;;;;;5.00;2.77;;;;;;;10.92;82.60;100664.84;5093896;28;20201;-67
2023/12/28 19:20:30;;;;;;;4.97;2.87;;;;;;;10.86;83.43;100661.97;5097079;28;20206;-66
2023/12/28 19:22:58;;;;;;;4.50;2.60;;;;;;;10.72;85.01;100671.22;5093701;28;20224;-67
2023/12/28 19:25:26;;;;;;;5.67;2.70;;;;;;;10.67;85.66;100677.94;5094921;28;20289;-67
2023/12/28 19:27:54;;;;;;;5.57;2.80;;;;;;;10.61;86.48;100666.09;5096990;28;20209;-66
2023/12/28 19:30:23;;;;;;;4.70;2.63;;;;;;;10.63;86.50;100663.31;5094575;28;20245;-68
2023/12/28 19:32:51;;;;;;;4.23;2.67;;;;;;;10.59;87.64;100662.75;5092540;28;20205;-67
2023/12/28 19:35:19;;;;;;;3.87;2.10;;;;;;;10.56;87.89;100652.41;5094391;28;20202;-68
2023/12/28 19:37:50;;;;;;;5.87;2.10;;;;;;;10.56;88.31;100653.25;5093937;28;20264;-68
2023/12/28 19:40:19;;;;;;;3.30;2.10;;;;;;;10.58;88.39;100655.75;5095221;28;20213;-68
2023/12/28 19:42:47;;;;;;;5.50;2.03;;;;;;;10.55;88.98;100645.47;5093854;28;20259;-68
2023/12/28 19:45:15;;;;;;;4.80;2.60;;;;;;;10.56;89.31;100642.63;5093008;28;20303;-67
2023/12/28 19:47:43;;;;;;;6.23;2.83;;;;;;;10.57;89.06;100638.19;5094024;28;20770;-67
2023/12/28 19:50:13;;;;;;;5.07;3.37;;;;;;;10.54;89.29;100639.31;5094053;28;20238;-66
2023/12/28 19:52:41;;;;;;;6.03;3.47;;;;;;;10.54;89.84;100646.44;5096367;28;20205;-69
2023/12/28 19:55:11;;;;;;;6.90;4.27;;;;;;;10.49;90.13;100646.84;5094054;28;20233;-67
2023/12/28 19:57:39;;;;;;;7.80;4.00;;;;;;;10.49;90.60;100646.00;5095847;28;20198;-69
2023/12/28 20:00:11;;;;;;;9.87;4.60;;;;;;;10.48;91.41;100657.59;5093869;28;20206;-67
2023/12/28 20:02:38;;;;;;;6.67;3.90;;;;;;;10.45;92.12;100652.59;5094460;28;20291;-67
2023/12/28 20:05:07;;;;;;;6.90;3.80;;;;;;;10.46;92.70;100646.31;5094810;28;20199;-65
2023/12/28 20:07:35;;;;;;;6.97;3.77;;;;;;;10.45;93.10;100637.53;5096686;28;20208;-68
2023/12/28 20:10:03;;;;;;;7.40;4.13;;;;;;;10.43;93.42;100647.44;5097774;28;20303;-69
2023/12/28 20:12:33;;;;;;;6.27;3.50;;;;;;;10.46;93.65;100636.56;5098094;28;20207;-65
2023/12/28 20:15:02;;;;;;;5.60;3.83;;;;;;;10.39;94.22;100632.78;5096118;28;20306;-67
2023/12/28 20:17:29;;;;;;;5.80;3.70;;;;;;;10.39;95.08;100626.63;5101377;28;20210;-67
2023/12/28 20:19:59;;;;;;;5.47;3.57;;;;;;;10.41;95.20;100628.16;5097613;28;20629;-65
2023/12/28 20:22:28;;;;;;;7.43;3.67;;;;;;;10.51;94.69;100634.28;5098263;28;20315;-67
2023/12/28 20:24:56;;;;;;;5.97;3.70;;;;;;;10.52;94.39;100638.63;5096598;28;20286;-65
2023/12/28 20:27:24;;;;;;;4.60;3.00;;;;;;;10.60;94.08;100635.25;5098717;28;20950;-68
2023/12/28 20:29:53;;;;;;;4.50;2.90;;;;;;;10.69;93.19;100637.03;5100381;28;20241;-67
2023/12/28 20:32:21;;;;;;;7.80;3.37;;;;;;;10.70;92.79;100636.06;5099160;28;20297;-68
2023/12/28 20:34:49;;;;;;;4.80;3.43;;;;;;;10.69;92.46;100637.03;5098334;28;20240;-68
2023/12/28 20:37:17;;;;;;;4.97;3.17;;;;;;;10.71;92.06;100643.03;5099694;28;20815;-68
2023/12/28 20:39:46;;;;;;;5.97;3.00;;;;;;;10.64;92.47;100636.66;5097421;28;20288;-67